< < Back
Terminal Aerodrome Forecast


Current Version              Previous Versions:   1  2  3  4  5  6  7  8  9  

Terminal Aerodrome Forecast

657
FTUS42 KGSP 191120
TAFAVL
TAF
KAVL 191120Z 1912/2012 33010KT P6SM FEW250
     FM191900 33005KT P6SM SCT250
     FM200000 33005KT P6SM FEW060 BKN250
     FM200600 00000KT P6SM -RA OVC060
     FM201000 00000KT P6SM -FZRA OVC060=



Latest METAR

415
SAUS70 KWBC 191400 RRP
MTRAVL
METAR KAVL 191354Z 36008KT 10SM CLR 04/M06 A3016 RMK AO2 SLP215
T00391056


USA.gov is the U.S. government's official web portal to all federal, state and local government web resources and services.